createdAt,value
2023-05-22T00:00:12.586Z,9.743600
2023-05-22T00:01:12.580Z,9.744631
2023-05-22T00:02:12.600Z,9.745723
2023-05-22T00:03:12.672Z,9.745936
2023-05-22T00:04:12.595Z,9.745115
2023-05-22T00:05:12.609Z,9.745848
2023-05-22T00:06:12.567Z,9.745787
2023-05-22T00:07:12.539Z,9.745909
2023-05-22T00:08:12.552Z,9.745705
2023-05-22T00:09:12.510Z,9.746801
2023-05-22T00:10:12.525Z,9.746330
2023-05-22T00:11:12.505Z,9.745274
2023-05-22T00:12:12.493Z,9.745621
2023-05-22T00:13:12.514Z,9.745700
2023-05-22T00:14:12.504Z,9.745815
2023-05-22T00:15:12.460Z,9.745621
2023-05-22T00:16:12.464Z,9.745764
2023-05-22T00:17:13.535Z,9.745614
2023-05-22T00:18:12.533Z,9.745589
2023-05-22T00:19:12.476Z,9.745480
2023-05-22T00:20:12.435Z,9.745469
2023-05-22T00:21:12.438Z,9.745412
2023-05-22T00:22:12.437Z,9.745601
2023-05-22T00:23:15.218Z,9.745551
2023-05-22T00:24:12.399Z,9.745818
2023-05-22T00:25:12.391Z,9.745937
2023-05-22T00:26:12.381Z,9.745493
2023-05-22T00:27:12.416Z,9.745558
2023-05-22T00:28:12.378Z,9.745484
2023-05-22T00:29:12.359Z,9.745743
2023-05-22T00:30:12.357Z,9.745749
2023-05-22T00:31:12.346Z,9.745722
2023-05-22T00:32:12.368Z,9.745636
2023-05-22T00:33:12.333Z,9.745720
2023-05-22T00:34:12.391Z,9.745819
2023-05-22T00:35:12.318Z,9.745589
2023-05-22T00:36:12.333Z,9.745659
2023-05-22T00:37:12.328Z,9.745660
2023-05-22T00:38:12.289Z,9.745536
2023-05-22T00:39:12.282Z,9.745540
2023-05-22T00:40:12.282Z,9.745373
2023-05-22T00:41:12.285Z,9.745515
2023-05-22T00:42:12.259Z,9.745509
2023-05-22T00:43:12.246Z,9.745413
2023-05-22T00:44:12.249Z,9.745915
2023-05-22T00:45:12.231Z,9.745744
2023-05-22T00:46:12.281Z,9.745552
2023-05-22T00:47:12.211Z,9.745652
2023-05-22T00:48:12.222Z,9.745566
2023-05-22T00:49:12.201Z,9.745633
2023-05-22T00:50:12.197Z,9.745328
2023-05-22T00:51:12.219Z,9.745455
2023-05-22T00:52:12.172Z,9.745483
2023-05-22T00:53:12.172Z,9.745604
2023-05-22T00:54:12.169Z,9.745659
2023-05-22T00:55:12.150Z,9.745577
2023-05-22T00:56:12.171Z,9.745704
2023-05-22T00:57:12.143Z,9.745675
2023-05-22T00:58:12.137Z,9.745354
2023-05-22T00:59:12.123Z,9.745140
2023-05-22T01:00:12.149Z,9.745338
2023-05-22T01:01:12.145Z,9.745300
2023-05-22T01:02:12.175Z,9.745227
2023-05-22T01:03:12.302Z,9.745482
2023-05-22T01:04:12.214Z,9.745792
2023-05-22T01:05:12.102Z,9.745694
2023-05-22T01:06:12.062Z,9.745555
2023-05-22T01:07:12.061Z,9.745678
2023-05-22T01:09:12.078Z,9.745477
2023-05-22T01:10:12.065Z,9.745476
2023-05-22T01:11:12.022Z,9.745356
2023-05-22T01:12:12.025Z,9.745279
2023-05-22T01:13:12.016Z,9.744862
2023-05-22T01:14:12.036Z,9.745216
2023-05-22T01:15:12.023Z,9.745453
2023-05-22T01:16:12.010Z,9.745526
2023-05-22T01:17:11.989Z,9.745197
2023-05-22T01:18:12.056Z,9.745481
2023-05-22T01:19:12.009Z,9.745105
2023-05-22T01:20:11.960Z,9.745657
2023-05-22T01:21:11.971Z,9.745476
2023-05-22T01:22:11.942Z,9.745582
2023-05-22T01:23:11.950Z,9.745384
2023-05-22T01:24:11.950Z,9.745544
2023-05-22T01:25:11.966Z,9.745356
2023-05-22T01:26:11.905Z,9.745173
2023-05-22T01:27:11.906Z,9.745205
2023-05-22T01:28:11.882Z,9.745071
2023-05-22T01:29:11.907Z,9.745270
2023-05-22T01:30:11.866Z,9.745258
2023-05-22T01:31:11.863Z,9.745441
2023-05-22T01:32:11.857Z,9.745669
2023-05-22T01:33:11.934Z,9.745140
2023-05-22T01:34:11.878Z,9.745275
2023-05-22T01:35:11.838Z,9.745085
2023-05-22T01:36:11.820Z,9.744962
2023-05-22T01:37:11.830Z,9.744640
2023-05-22T01:38:11.837Z,9.744758
2023-05-22T01:39:11.797Z,9.745152
2023-05-22T01:40:11.793Z,9.745291
2023-05-22T01:41:11.823Z,9.745481
2023-05-22T01:42:11.781Z,9.745238
2023-05-22T01:43:11.794Z,9.745006
2023-05-22T01:44:11.770Z,9.745079
2023-05-22T01:45:11.791Z,9.745615
2023-05-22T01:46:11.841Z,9.745255
2023-05-22T01:47:11.762Z,9.745368
2023-05-22T01:48:11.759Z,9.745707
2023-05-22T01:49:11.738Z,9.745601
2023-05-22T01:50:11.731Z,9.745501
2023-05-22T01:51:11.707Z,9.745877
2023-05-22T01:52:11.723Z,9.745782
2023-05-22T01:53:11.767Z,9.745587
2023-05-22T01:54:11.679Z,9.745165
2023-05-22T01:55:11.676Z,9.745385
2023-05-22T01:56:11.669Z,9.745728
2023-05-22T01:57:11.692Z,9.745477
2023-05-22T01:58:11.647Z,9.745468
2023-05-22T01:59:11.647Z,9.745580
2023-05-22T02:00:11.698Z,9.745706
2023-05-22T02:01:11.687Z,9.745508
2023-05-22T02:02:11.675Z,9.745243
2023-05-22T02:03:11.785Z,9.744967
2023-05-22T02:04:11.610Z,9.745461
2023-05-22T02:05:11.596Z,9.745472
2023-05-22T02:06:11.611Z,9.745446
2023-05-22T02:07:12.700Z,9.745755
2023-05-22T02:08:11.580Z,9.745862
2023-05-22T02:09:11.563Z,9.745473
2023-05-22T02:10:11.566Z,9.745325
2023-05-22T02:11:11.580Z,9.745154
2023-05-22T02:12:11.541Z,9.745559
2023-05-22T02:13:11.535Z,9.745644
2023-05-22T02:14:11.519Z,9.745788
2023-05-22T02:15:11.511Z,9.745889
2023-05-22T02:16:11.633Z,9.745695
2023-05-22T02:17:11.513Z,9.745461
2023-05-22T02:18:11.580Z,9.745720
2023-05-22T02:19:11.541Z,9.745901
2023-05-22T02:20:11.488Z,9.745603
2023-05-22T02:21:11.493Z,9.745857
2023-05-22T02:22:11.467Z,9.745746
2023-05-22T02:23:11.475Z,9.745625
2023-05-22T02:24:11.448Z,9.745821
2023-05-22T02:25:11.460Z,9.745942
2023-05-22T02:26:11.452Z,9.745994
2023-05-22T02:27:11.421Z,9.745871
2023-05-22T02:28:11.423Z,9.745431
2023-05-22T02:29:11.407Z,9.745416
2023-05-22T02:30:11.426Z,9.745364
2023-05-22T02:31:11.397Z,9.745289
2023-05-22T02:32:11.386Z,9.745436
2023-05-22T02:33:11.472Z,9.745626
2023-05-22T02:34:11.375Z,9.745773
2023-05-22T02:35:11.400Z,9.745415
2023-05-22T02:36:11.359Z,9.745259
2023-05-22T02:37:11.396Z,9.745349
2023-05-22T02:38:11.338Z,9.745301
2023-05-22T02:39:11.351Z,9.745191
2023-05-22T02:40:11.347Z,9.745354
2023-05-22T02:41:11.320Z,9.745312
2023-05-22T02:42:11.304Z,9.745240
2023-05-22T02:43:11.319Z,9.744985
2023-05-22T02:44:11.325Z,9.745062
2023-05-22T02:45:11.304Z,9.745449
2023-05-22T02:46:11.296Z,9.745205
2023-05-22T02:47:11.268Z,9.745227
2023-05-22T02:48:11.339Z,9.745280
2023-05-22T02:49:11.282Z,9.745299
2023-05-22T02:50:11.269Z,9.745292
2023-05-22T02:51:11.239Z,9.745100
2023-05-22T02:52:11.224Z,9.745297
2023-05-22T02:53:11.232Z,9.745186
2023-05-22T02:54:11.231Z,9.745275
2023-05-22T02:55:11.208Z,9.745420
2023-05-22T02:56:11.221Z,9.745248
2023-05-22T02:57:11.184Z,9.745186
2023-05-22T02:58:11.191Z,9.745134
2023-05-22T02:59:11.199Z,9.745071
2023-05-22T03:00:11.168Z,9.745232
2023-05-22T03:01:11.277Z,9.745214
2023-05-22T03:02:11.181Z,9.745290
2023-05-22T03:03:11.274Z,9.745308
2023-05-22T03:04:11.226Z,9.745337
2023-05-22T03:05:11.121Z,9.745508
2023-05-22T03:06:11.122Z,9.745541
2023-05-22T03:07:11.111Z,9.745533
2023-05-22T03:08:11.138Z,9.745666
2023-05-22T03:09:11.099Z,9.745600
2023-05-22T03:10:11.085Z,9.745511
2023-05-22T03:11:11.083Z,9.745492
2023-05-22T03:12:11.068Z,9.745499
2023-05-22T03:13:11.126Z,9.745531
2023-05-22T03:14:11.063Z,9.745577
2023-05-22T03:15:11.110Z,9.745520
2023-05-22T03:16:11.079Z,9.745490
2023-05-22T03:17:11.041Z,9.745499
2023-05-22T03:18:11.071Z,9.745534
2023-05-22T03:19:11.077Z,9.745543
2023-05-22T03:20:11.019Z,9.745503
2023-05-22T03:21:10.999Z,9.745621
2023-05-22T03:22:11.022Z,9.745459
2023-05-22T03:23:11.009Z,9.745421
2023-05-22T03:24:10.980Z,9.745359
2023-05-22T03:25:10.976Z,9.745380
2023-05-22T03:26:10.973Z,9.745474
2023-05-22T03:27:10.992Z,9.745503
2023-05-22T03:28:10.948Z,9.745463
2023-05-22T03:29:11.034Z,9.745384
2023-05-22T03:30:10.943Z,9.745623
2023-05-22T03:31:10.926Z,9.745508
2023-05-22T03:32:10.983Z,9.745545
2023-05-22T03:33:11.034Z,9.745547
2023-05-22T03:34:11.069Z,9.745572
2023-05-22T03:35:10.902Z,9.745684
2023-05-22T03:36:10.915Z,9.745627
2023-05-22T03:37:10.926Z,9.745580
2023-05-22T03:38:10.881Z,9.745463
2023-05-22T03:39:10.863Z,9.745392
2023-05-22T03:40:10.851Z,9.745262
2023-05-22T03:41:10.866Z,9.745232
2023-05-22T03:42:10.835Z,9.745532
2023-05-22T03:43:10.837Z,9.744748
2023-05-22T03:44:10.820Z,9.745090
2023-05-22T03:45:10.819Z,9.745350
2023-05-22T03:46:10.872Z,9.745334
2023-05-22T03:47:10.798Z,9.745281
2023-05-22T03:48:10.929Z,9.745211
2023-05-22T03:49:10.786Z,9.745301
2023-05-22T03:50:10.777Z,9.745520
2023-05-22T03:51:10.811Z,9.745574
2023-05-22T03:52:10.788Z,9.745529
2023-05-22T03:53:10.744Z,9.745132
2023-05-22T03:54:11.744Z,9.745338
2023-05-22T03:55:10.765Z,9.745391
2023-05-22T03:56:10.755Z,9.745603
2023-05-22T03:57:10.739Z,9.745614
2023-05-22T03:58:10.713Z,9.745514
2023-05-22T03:59:10.704Z,9.745681
2023-05-22T04:00:10.925Z,9.745474
2023-05-22T04:01:10.690Z,9.745406
2023-05-22T04:02:10.684Z,9.745507
2023-05-22T04:03:10.754Z,9.745530
2023-05-22T04:04:10.658Z,9.745734
2023-05-22T04:05:10.735Z,9.745522
2023-05-22T04:06:10.648Z,9.745355
2023-05-22T04:07:10.648Z,9.745565
2023-05-22T04:08:10.627Z,9.745544
2023-05-22T04:09:10.641Z,9.745358
2023-05-22T04:10:10.633Z,9.745277
2023-05-22T04:11:10.606Z,9.745380
2023-05-22T04:12:10.603Z,9.745247
2023-05-22T04:13:10.591Z,9.745386
2023-05-22T04:14:10.613Z,9.745505
2023-05-22T04:15:10.579Z,9.745401
2023-05-22T04:16:10.665Z,9.745018
2023-05-22T04:17:10.594Z,9.745322
2023-05-22T04:18:10.633Z,9.745358
2023-05-22T04:19:10.582Z,9.745438
2023-05-22T04:20:10.520Z,9.745217
2023-05-22T04:21:11.522Z,9.745657
2023-05-22T04:22:10.519Z,9.745502
2023-05-22T04:23:10.516Z,9.745465
2023-05-22T04:24:10.532Z,9.745573
2023-05-22T04:25:10.488Z,9.745726
2023-05-22T04:26:10.496Z,9.745318
2023-05-22T04:27:10.516Z,9.745490
2023-05-22T04:28:10.503Z,9.745850
2023-05-22T04:29:10.549Z,9.746161
2023-05-22T04:30:10.507Z,9.746014
2023-05-22T04:31:10.492Z,9.745786
2023-05-22T04:32:10.442Z,9.745701
2023-05-22T04:33:10.520Z,9.745663
2023-05-22T04:34:10.425Z,9.745667
2023-05-22T04:35:10.431Z,9.745514
2023-05-22T04:36:12.324Z,9.745264
2023-05-22T04:37:10.403Z,9.745541
2023-05-22T04:38:10.416Z,9.745345
2023-05-22T04:39:10.372Z,9.745119
2023-05-22T04:40:10.399Z,9.745397
2023-05-22T04:41:10.358Z,9.745245
2023-05-22T04:42:10.385Z,9.745367
2023-05-22T04:43:10.377Z,9.745061
2023-05-22T04:44:10.345Z,9.745200
2023-05-22T04:45:10.334Z,9.745372
2023-05-22T04:46:10.484Z,9.745273
2023-05-22T04:47:10.448Z,9.745253
2023-05-22T04:48:10.327Z,9.745425
2023-05-22T04:49:10.295Z,9.745347
2023-05-22T04:50:10.285Z,9.745302
2023-05-22T04:51:10.281Z,9.745425
2023-05-22T04:52:10.288Z,9.745522
2023-05-22T04:53:10.262Z,9.745667
2023-05-22T04:54:10.253Z,9.745726
2023-05-22T04:55:10.249Z,9.745676
2023-05-22T04:56:11.817Z,9.745775
2023-05-22T04:57:10.256Z,9.745653
2023-05-22T04:58:10.228Z,9.745623
2023-05-22T04:59:10.223Z,9.745651
2023-05-22T05:00:10.212Z,9.745666
2023-05-22T05:01:10.293Z,9.745984
2023-05-22T05:02:10.193Z,9.745697
2023-05-22T05:03:10.300Z,9.745647
2023-05-22T05:04:10.263Z,9.745600
2023-05-22T05:05:10.164Z,9.745736
2023-05-22T05:06:10.185Z,9.745469
2023-05-22T05:07:10.164Z,9.745616
2023-05-22T05:08:10.150Z,9.745587
2023-05-22T05:09:10.141Z,9.745607
2023-05-22T05:10:10.133Z,9.745621
2023-05-22T05:11:10.150Z,9.745638
2023-05-22T05:12:10.110Z,9.745699
2023-05-22T05:13:10.107Z,9.745579
2023-05-22T05:14:10.096Z,9.745632
2023-05-22T05:15:10.108Z,9.745694
2023-05-22T05:16:10.123Z,9.745598
2023-05-22T05:17:10.067Z,9.745497
2023-05-22T05:18:10.093Z,9.745575
2023-05-22T05:19:10.124Z,9.745483
2023-05-22T05:20:10.076Z,9.745598
2023-05-22T05:21:10.034Z,9.745724
2023-05-22T05:22:10.038Z,9.745536
2023-05-22T05:23:10.020Z,9.745594
2023-05-22T05:24:10.015Z,9.745642
2023-05-22T05:25:11.659Z,9.745581
2023-05-22T05:26:10.998Z,9.745576
2023-05-22T05:27:09.987Z,9.745577
2023-05-22T05:28:09.979Z,9.745570
2023-05-22T05:29:09.976Z,9.745591
2023-05-22T05:30:09.990Z,9.745772
2023-05-22T05:31:09.972Z,9.745568
2023-05-22T05:32:09.972Z,9.745642
2023-05-22T05:33:09.984Z,9.745584
2023-05-22T05:34:09.971Z,9.745421
2023-05-22T05:35:09.986Z,9.745555
2023-05-22T05:36:09.942Z,9.745660
2023-05-22T05:37:09.961Z,9.745676
2023-05-22T05:38:09.907Z,9.745723
2023-05-22T05:39:09.920Z,9.745524
2023-05-22T05:40:09.892Z,9.745470
2023-05-22T05:41:09.887Z,9.745501
2023-05-22T05:42:09.882Z,9.745518
2023-05-22T05:43:09.885Z,9.745548
2023-05-22T05:44:09.889Z,9.745536
2023-05-22T05:45:09.855Z,9.745473
2023-05-22T05:46:09.926Z,9.745515
2023-05-22T05:47:09.838Z,9.745519
2023-05-22T05:48:09.890Z,9.745618
2023-05-22T05:49:09.864Z,9.745298
2023-05-22T05:50:09.824Z,9.745445
2023-05-22T05:51:09.809Z,9.745185
2023-05-22T05:52:09.809Z,9.745444
2023-05-22T05:53:09.841Z,9.745686
2023-05-22T05:54:09.788Z,9.745721
2023-05-22T05:55:09.780Z,9.745528
2023-05-22T05:56:09.776Z,9.745584
2023-05-22T05:57:09.795Z,9.745638
2023-05-22T05:58:09.786Z,9.745915
2023-05-22T05:59:09.767Z,9.745819
2023-05-22T06:00:09.749Z,9.745611
2023-05-22T06:01:09.755Z,9.745564
2023-05-22T06:02:09.854Z,9.745870
2023-05-22T06:03:09.805Z,9.745669
2023-05-22T06:04:09.727Z,9.745665
2023-05-22T06:05:09.719Z,9.745466
2023-05-22T06:06:09.709Z,9.745599
2023-05-22T06:07:09.740Z,9.745534
2023-05-22T06:08:09.695Z,9.745684
2023-05-22T06:09:09.691Z,9.745648
2023-05-22T06:10:09.685Z,9.745700
2023-05-22T06:11:09.667Z,9.745764
2023-05-22T06:12:09.690Z,9.745846
2023-05-22T06:13:10.659Z,9.745717
2023-05-22T06:14:09.656Z,9.745450
2023-05-22T06:15:09.646Z,9.745599
2023-05-22T06:16:09.668Z,9.745929
2023-05-22T06:17:09.649Z,9.745800
2023-05-22T06:18:09.644Z,9.745620
2023-05-22T06:19:09.701Z,9.745878
2023-05-22T06:20:09.605Z,9.745502
2023-05-22T06:21:09.638Z,9.745514
2023-05-22T06:22:09.600Z,9.745368
2023-05-22T06:23:09.589Z,9.745226
2023-05-22T06:24:09.575Z,9.745404
2023-05-22T06:25:09.613Z,9.745640
2023-05-22T06:26:09.591Z,9.746200
2023-05-22T06:27:09.579Z,9.745815
2023-05-22T06:28:09.554Z,9.745467
2023-05-22T06:29:09.553Z,9.745411
2023-05-22T06:30:09.591Z,9.745411
2023-05-22T06:31:09.540Z,9.745551
2023-05-22T06:32:09.598Z,9.745410
2023-05-22T06:33:09.728Z,9.745448
2023-05-22T06:34:09.641Z,9.745469
2023-05-22T06:35:09.526Z,9.745522
2023-05-22T06:36:09.507Z,9.745370
2023-05-22T06:37:09.482Z,9.745305
2023-05-22T06:38:09.491Z,9.745452
2023-05-22T06:39:09.474Z,9.745648
2023-05-22T06:40:09.480Z,9.745559
2023-05-22T06:41:10.560Z,9.745604
2023-05-22T06:42:09.448Z,9.745535
2023-05-22T06:43:09.442Z,9.745603
2023-05-22T06:44:09.464Z,9.745597
2023-05-22T06:45:09.453Z,9.745250
2023-05-22T06:46:09.512Z,9.745319
2023-05-22T06:47:09.411Z,9.745551
2023-05-22T06:48:09.474Z,9.745228
2023-05-22T06:49:09.421Z,9.745057
2023-05-22T06:50:09.386Z,9.745218
2023-05-22T06:51:09.376Z,9.745373
2023-05-22T06:52:09.374Z,9.745585
2023-05-22T06:53:09.369Z,9.745529
2023-05-22T06:54:09.483Z,9.745077
2023-05-22T06:55:09.362Z,9.745162
2023-05-22T06:56:09.372Z,9.745176
2023-05-22T06:57:09.333Z,9.745077
2023-05-22T06:58:09.352Z,9.745846
2023-05-22T06:59:09.350Z,9.745534
2023-05-22T07:00:09.310Z,9.745971
2023-05-22T07:01:09.347Z,9.745772
2023-05-22T07:02:09.294Z,9.745620
2023-05-22T07:03:09.343Z,9.745537
2023-05-22T07:04:09.276Z,9.745351
2023-05-22T07:05:09.305Z,9.745512
2023-05-22T07:06:09.273Z,9.745686
2023-05-22T07:07:09.259Z,9.745698
2023-05-22T07:08:09.281Z,9.745593
2023-05-22T07:09:09.247Z,9.745378
2023-05-22T07:10:09.246Z,9.745329
2023-05-22T07:11:09.223Z,9.745557
2023-05-22T07:12:09.215Z,9.745410
2023-05-22T07:13:09.298Z,9.746018
2023-05-22T07:14:09.200Z,9.745868
2023-05-22T07:15:09.193Z,9.745445
2023-05-22T07:16:09.214Z,9.745220
2023-05-22T07:17:09.201Z,9.745292
2023-05-22T07:18:09.252Z,9.745385
2023-05-22T07:19:09.199Z,9.745140
2023-05-22T07:20:09.164Z,9.745494
2023-05-22T07:21:09.144Z,9.745642
2023-05-22T07:22:09.169Z,9.745560
2023-05-22T07:23:09.135Z,9.745475
2023-05-22T07:24:09.134Z,9.745509
2023-05-22T07:25:09.114Z,9.745713
2023-05-22T07:26:09.108Z,9.745201
2023-05-22T07:27:09.138Z,9.745420
2023-05-22T07:28:09.311Z,9.745378
2023-05-22T07:29:09.091Z,9.745514
2023-05-22T07:30:09.090Z,9.745235
2023-05-22T07:31:09.104Z,9.745741
2023-05-22T07:32:09.083Z,9.745724
2023-05-22T07:33:09.081Z,9.745168
2023-05-22T07:34:09.062Z,9.745341
2023-05-22T07:35:09.049Z,9.745408
2023-05-22T07:36:09.075Z,9.745531
2023-05-22T07:37:09.051Z,9.745062
2023-05-22T07:38:09.016Z,9.745481
2023-05-22T07:39:09.030Z,9.745815
2023-05-22T07:40:09.012Z,9.745681
2023-05-22T07:41:09.019Z,9.745681
2023-05-22T07:42:08.992Z,9.745591
2023-05-22T07:43:08.979Z,9.745324
2023-05-22T07:44:08.975Z,9.745222
2023-05-22T07:45:08.975Z,9.745132
2023-05-22T07:46:09.220Z,9.745367
2023-05-22T07:47:08.981Z,9.745716
2023-05-22T07:48:08.955Z,9.745454
2023-05-22T07:49:08.951Z,9.745444
2023-05-22T07:50:08.939Z,9.745182
2023-05-22T07:51:08.948Z,9.745213
2023-05-22T07:52:08.916Z,9.745191
2023-05-22T07:53:08.906Z,9.745235
2023-05-22T07:54:08.894Z,9.745317
2023-05-22T07:55:08.957Z,9.745126
2023-05-22T07:56:08.902Z,9.745688
2023-05-22T07:57:08.885Z,9.745893
2023-05-22T07:58:08.863Z,9.745965
2023-05-22T07:59:08.869Z,9.745923
2023-05-22T08:00:08.908Z,9.745884
2023-05-22T08:01:09.718Z,9.745761
2023-05-22T08:02:09.907Z,9.745586
2023-05-22T08:03:08.934Z,9.745782
2023-05-22T08:04:09.048Z,9.745751
2023-05-22T08:05:08.889Z,9.745876
2023-05-22T08:06:08.823Z,9.745580
2023-05-22T08:07:08.824Z,9.745592
2023-05-22T08:08:08.787Z,9.745465
2023-05-22T08:09:09.045Z,9.745280
2023-05-22T08:10:08.769Z,9.745471
2023-05-22T08:11:09.003Z,9.745654
2023-05-22T08:12:08.797Z,9.745573
2023-05-22T08:13:08.755Z,9.745609
2023-05-22T08:14:08.745Z,9.745646
2023-05-22T08:15:08.739Z,9.745726
2023-05-22T08:16:08.755Z,9.745811
2023-05-22T08:17:08.902Z,9.745722
2023-05-22T08:18:08.736Z,9.745711
2023-05-22T08:19:08.752Z,9.745674
2023-05-22T08:20:08.860Z,9.745527
2023-05-22T08:21:08.721Z,9.745535
2023-05-22T08:22:08.685Z,9.745439
2023-05-22T08:23:08.699Z,9.745496
2023-05-22T08:24:08.683Z,9.745733
2023-05-22T08:25:08.664Z,9.745691
2023-05-22T08:26:08.699Z,9.745707
2023-05-22T08:27:08.646Z,9.745589
2023-05-22T08:28:08.644Z,9.745514
2023-05-22T08:29:08.629Z,9.745604
2023-05-22T08:30:08.642Z,9.745624
2023-05-22T08:31:08.741Z,9.745699
2023-05-22T08:32:08.745Z,9.745723
2023-05-22T08:33:08.782Z,9.745780
2023-05-22T08:34:08.592Z,9.745813
2023-05-22T08:35:08.613Z,9.745780
2023-05-22T08:36:08.580Z,9.745661
2023-05-22T08:37:08.574Z,9.745715
2023-05-22T08:38:08.576Z,9.745703
2023-05-22T08:39:08.561Z,9.745875
2023-05-22T08:40:08.574Z,9.745658
2023-05-22T08:41:08.556Z,9.745739
2023-05-22T08:42:08.543Z,9.745737
2023-05-22T08:43:08.545Z,9.745587
2023-05-22T08:44:08.563Z,9.745841
2023-05-22T08:45:08.540Z,9.745854
2023-05-22T08:46:08.509Z,9.745731
2023-05-22T08:47:08.605Z,9.745625
2023-05-22T08:48:08.496Z,9.745420
2023-05-22T08:49:08.541Z,9.745378
2023-05-22T08:50:08.481Z,9.745515
2023-05-22T08:51:08.471Z,9.745927
2023-05-22T08:52:08.474Z,9.746101
2023-05-22T08:53:08.450Z,9.745664
2023-05-22T08:54:08.493Z,9.745397
2023-05-22T08:55:08.444Z,9.745569
2023-05-22T08:56:08.478Z,9.745541
2023-05-22T08:57:08.452Z,9.745531
2023-05-22T08:58:08.458Z,9.745519
2023-05-22T08:59:08.442Z,9.745391
2023-05-22T09:00:08.406Z,9.745367
2023-05-22T09:01:08.461Z,9.745275
2023-05-22T09:02:08.394Z,9.745435
2023-05-22T09:03:08.455Z,9.745495
2023-05-22T09:04:08.475Z,9.745338
2023-05-22T09:05:08.412Z,9.745184
2023-05-22T09:06:08.362Z,9.745313
2023-05-22T09:07:08.362Z,9.745787
2023-05-22T09:08:19.172Z,9.745646
2023-05-22T09:09:10.348Z,9.745578
2023-05-22T09:10:08.338Z,9.745308
2023-05-22T09:11:08.335Z,9.745312
2023-05-22T09:12:08.332Z,9.745280
2023-05-22T09:13:08.358Z,9.745233
2023-05-22T09:14:08.348Z,9.745247
2023-05-22T09:15:08.303Z,9.745546
2023-05-22T09:16:08.311Z,9.745446
2023-05-22T09:17:08.407Z,9.745461
2023-05-22T09:18:08.396Z,9.745294
2023-05-22T09:19:08.312Z,9.745354
2023-05-22T09:20:08.268Z,9.745276
2023-05-22T09:21:21.652Z,9.745347
2023-05-22T09:22:10.290Z,9.745409
2023-05-22T09:23:08.268Z,9.745933
2023-05-22T09:24:08.270Z,9.745751
2023-05-22T09:25:08.236Z,9.745620
2023-05-22T09:26:08.225Z,9.745452
2023-05-22T09:27:08.264Z,9.745483
2023-05-22T09:28:08.208Z,9.745449
2023-05-22T09:29:08.215Z,9.745555
2023-05-22T09:30:08.203Z,9.745424
2023-05-22T09:31:08.241Z,9.745273
2023-05-22T09:32:08.202Z,9.745355
2023-05-22T09:33:08.227Z,9.745335
2023-05-22T09:34:08.169Z,9.745524
2023-05-22T09:35:08.174Z,9.745706
2023-05-22T09:36:08.162Z,9.745739
2023-05-22T09:37:08.166Z,9.745630
2023-05-22T09:38:09.226Z,9.745732
2023-05-22T09:39:08.137Z,9.745552
2023-05-22T09:40:08.131Z,9.745571
2023-05-22T09:41:08.141Z,9.745628
2023-05-22T09:42:08.163Z,9.745708
2023-05-22T09:43:08.097Z,9.745558
2023-05-22T09:44:08.096Z,9.746125
2023-05-22T09:45:08.093Z,9.745911
2023-05-22T09:46:08.341Z,9.745603
2023-05-22T09:47:08.093Z,9.745949
2023-05-22T09:48:08.120Z,9.745883
2023-05-22T09:49:08.062Z,9.745269
2023-05-22T09:50:08.059Z,9.745995
2023-05-22T09:51:08.074Z,9.745558
2023-05-22T09:52:08.067Z,9.745419
2023-05-22T09:53:08.060Z,9.745382
2023-05-22T09:54:08.028Z,9.745683
2023-05-22T09:55:08.041Z,9.745462
2023-05-22T09:56:08.029Z,9.745275
2023-05-22T09:57:08.012Z,9.744916
2023-05-22T09:58:07.988Z,9.745407
2023-05-22T09:59:07.989Z,9.745496
2023-05-22T10:00:08.006Z,9.745426
2023-05-22T10:01:08.010Z,9.745682
2023-05-22T10:02:08.085Z,9.745654
2023-05-22T10:03:08.037Z,9.745585
2023-05-22T10:04:08.018Z,9.745508
2023-05-22T10:05:07.995Z,9.745583
2023-05-22T10:06:07.941Z,9.745573
2023-05-22T10:07:07.927Z,9.745708
2023-05-22T10:08:07.920Z,9.745437
2023-05-22T10:09:07.921Z,9.745477
2023-05-22T10:10:07.987Z,9.745441
2023-05-22T10:11:07.898Z,9.745502
2023-05-22T10:12:07.943Z,9.745452
2023-05-22T10:13:07.953Z,9.745462
2023-05-22T10:14:07.937Z,9.745442
2023-05-22T10:15:07.896Z,9.745699
2023-05-22T10:16:07.920Z,9.745387
2023-05-22T10:17:07.856Z,9.745185
2023-05-22T10:18:07.961Z,9.745558
2023-05-22T10:19:07.907Z,9.745629
2023-05-22T10:20:07.827Z,9.745440
2023-05-22T10:21:07.836Z,9.745378
2023-05-22T10:22:07.830Z,9.745400
2023-05-22T10:23:07.858Z,9.745354
2023-05-22T10:24:07.832Z,9.745354
2023-05-22T10:25:10.429Z,9.745136
2023-05-22T10:26:07.784Z,9.745341
2023-05-22T10:27:07.785Z,9.745370
2023-05-22T10:28:07.795Z,9.745482
2023-05-22T10:29:07.788Z,9.745442
2023-05-22T10:30:07.816Z,9.745321
2023-05-22T10:31:07.748Z,9.745390
2023-05-22T10:32:07.740Z,9.745655
2023-05-22T10:33:07.889Z,9.745690
2023-05-22T10:34:07.851Z,9.745062
2023-05-22T10:35:07.718Z,9.745311
2023-05-22T10:36:07.726Z,9.745341
2023-05-22T10:37:17.106Z,9.745506
2023-05-22T10:38:09.719Z,9.745571
2023-05-22T10:39:07.682Z,9.745726
2023-05-22T10:40:07.679Z,9.745337
2023-05-22T10:41:07.750Z,9.745329
2023-05-22T10:42:07.659Z,9.745424
2023-05-22T10:43:07.696Z,9.745392
2023-05-22T10:44:07.650Z,9.745382
2023-05-22T10:45:07.676Z,9.745454
2023-05-22T10:46:07.738Z,9.745515
2023-05-22T10:47:07.669Z,9.745564
2023-05-22T10:48:07.769Z,9.745564
2023-05-22T10:49:07.616Z,9.745637
2023-05-22T10:50:07.625Z,9.745516
2023-05-22T10:51:07.601Z,9.745356
2023-05-22T10:52:07.620Z,9.745568
2023-05-22T10:53:07.585Z,9.745392
2023-05-22T10:54:07.585Z,9.745020
2023-05-22T10:55:07.593Z,9.745420
2023-05-22T10:56:07.573Z,9.745556
2023-05-22T10:57:07.683Z,9.745628
2023-05-22T10:58:07.555Z,9.745461
2023-05-22T10:59:07.572Z,9.745498
2023-05-22T11:00:07.546Z,9.745308
2023-05-22T11:01:07.540Z,9.745565
2023-05-22T11:02:09.619Z,9.745607
2023-05-22T11:03:17.069Z,9.745648
2023-05-22T11:04:09.512Z,9.745442
2023-05-22T11:05:07.562Z,9.745400
2023-05-22T11:06:07.518Z,9.745366
2023-05-22T11:07:07.512Z,9.745407
2023-05-22T11:08:07.480Z,9.745357
2023-05-22T11:09:07.474Z,9.745402
2023-05-22T11:10:07.462Z,9.745049
2023-05-22T11:11:07.483Z,9.745263
2023-05-22T11:12:07.462Z,9.745127
2023-05-22T11:13:07.517Z,9.744978
2023-05-22T11:14:07.447Z,9.744946
2023-05-22T11:15:07.423Z,9.744896
2023-05-22T11:16:07.453Z,9.745240
2023-05-22T11:17:07.442Z,9.745427
2023-05-22T11:18:07.459Z,9.745436
2023-05-22T11:19:21.943Z,9.745188
2023-05-22T11:20:09.529Z,9.745147
2023-05-22T11:21:07.419Z,9.745302
2023-05-22T11:22:07.384Z,9.745337
2023-05-22T11:23:07.370Z,9.745206
2023-05-22T11:24:07.362Z,9.745161
2023-05-22T11:25:07.398Z,9.745257
2023-05-22T11:26:07.342Z,9.745308
2023-05-22T11:27:07.348Z,9.745489
2023-05-22T11:28:07.342Z,9.745449
2023-05-22T11:29:07.329Z,9.744184
2023-05-22T11:30:07.366Z,9.743928
2023-05-22T11:31:07.345Z,9.744902
2023-05-22T11:32:07.313Z,9.745331
2023-05-22T11:33:07.344Z,9.745418
2023-05-22T11:34:07.307Z,9.745337
2023-05-22T11:35:07.291Z,9.745145
2023-05-22T11:36:08.271Z,9.745535
2023-05-22T11:37:07.258Z,9.745542
2023-05-22T11:38:07.377Z,9.745495
2023-05-22T11:39:07.293Z,9.745452
2023-05-22T11:40:07.251Z,9.745505
2023-05-22T11:41:07.231Z,9.745670
2023-05-22T11:42:07.213Z,9.745591
2023-05-22T11:43:08.237Z,9.745371
2023-05-22T11:44:07.232Z,9.745309
2023-05-22T11:45:07.278Z,9.745239